sensor_id;sensor_type;location;lat;lon;timestamp;P1;durP1;ratioP1;P2;durP2;ratioP2
25057;SDS011;13057;50.978;11.034;2023-02-04T00:01:22;8.93;;;1.73;;
25057;SDS011;13057;50.978;11.034;2023-02-04T00:03:47;6.75;;;1.80;;
25057;SDS011;13057;50.978;11.034;2023-02-04T00:06:13;7.70;;;1.80;;
25057;SDS011;13057;50.978;11.034;2023-02-04T00:08:39;7.05;;;1.70;;
25057;SDS011;13057;50.978;11.034;2023-02-04T00:11:06;7.50;;;2.03;;
25057;SDS011;13057;50.978;11.034;2023-02-04T00:13:32;8.45;;;1.55;;
25057;SDS011;13057;50.978;11.034;2023-02-04T00:15:58;10.15;;;1.92;;
25057;SDS011;13057;50.978;11.034;2023-02-04T00:18:24;10.70;;;2.00;;
25057;SDS011;13057;50.978;11.034;2023-02-04T00:20:50;7.65;;;2.17;;
25057;SDS011;13057;50.978;11.034;2023-02-04T00:23:15;7.75;;;2.15;;
25057;SDS011;13057;50.978;11.034;2023-02-04T00:25:41;9.95;;;1.45;;
25057;SDS011;13057;50.978;11.034;2023-02-04T00:28:07;6.97;;;2.00;;
25057;SDS011;13057;50.978;11.034;2023-02-04T00:30:33;7.95;;;1.80;;
25057;SDS011;13057;50.978;11.034;2023-02-04T00:32:59;14.05;;;1.90;;
25057;SDS011;13057;50.978;11.034;2023-02-04T00:35:25;9.75;;;1.95;;
25057;SDS011;13057;50.978;11.034;2023-02-04T00:37:51;11.25;;;2.00;;
25057;SDS011;13057;50.978;11.034;2023-02-04T00:40:17;8.73;;;1.50;;
25057;SDS011;13057;50.978;11.034;2023-02-04T00:42:42;14.88;;;1.80;;
25057;SDS011;13057;50.978;11.034;2023-02-04T00:45:09;8.57;;;1.80;;
25057;SDS011;13057;50.978;11.034;2023-02-04T00:47:35;10.07;;;1.95;;
25057;SDS011;13057;50.978;11.034;2023-02-04T00:50:01;8.25;;;1.75;;
25057;SDS011;13057;50.978;11.034;2023-02-04T00:52:27;10.75;;;1.63;;
25057;SDS011;13057;50.978;11.034;2023-02-04T00:54:53;7.78;;;1.85;;
25057;SDS011;13057;50.978;11.034;2023-02-04T00:57:19;8.90;;;1.88;;
25057;SDS011;13057;50.978;11.034;2023-02-04T00:59:45;10.65;;;2.00;;
25057;SDS011;13057;50.978;11.034;2023-02-04T01:02:11;8.93;;;1.67;;
25057;SDS011;13057;50.978;11.034;2023-02-04T01:04:36;9.20;;;2.28;;
25057;SDS011;13057;50.978;11.034;2023-02-04T01:07:02;12.30;;;2.40;;
25057;SDS011;13057;50.978;11.034;2023-02-04T01:09:28;10.55;;;1.90;;
25057;SDS011;13057;50.978;11.034;2023-02-04T01:11:54;8.13;;;2.08;;
25057;SDS011;13057;50.978;11.034;2023-02-04T01:14:20;9.85;;;2.13;;
25057;SDS011;13057;50.978;11.034;2023-02-04T01:16:46;10.70;;;1.85;;
25057;SDS011;13057;50.978;11.034;2023-02-04T01:19:12;10.73;;;2.03;;
25057;SDS011;13057;50.978;11.034;2023-02-04T01:21:38;10.73;;;2.30;;
25057;SDS011;13057;50.978;11.034;2023-02-04T01:24:04;9.65;;;2.35;;
25057;SDS011;13057;50.978;11.034;2023-02-04T01:26:30;9.80;;;1.90;;
25057;SDS011;13057;50.978;11.034;2023-02-04T01:28:56;9.10;;;2.10;;
25057;SDS011;13057;50.978;11.034;2023-02-04T01:31:22;10.90;;;1.73;;
25057;SDS011;13057;50.978;11.034;2023-02-04T01:33:48;15.75;;;2.47;;
25057;SDS011;13057;50.978;11.034;2023-02-04T01:36:14;11.77;;;2.58;;
25057;SDS011;13057;50.978;11.034;2023-02-04T01:38:46;12.90;;;2.17;;
25057;SDS011;13057;50.978;11.034;2023-02-04T01:41:13;7.55;;;1.70;;
25057;SDS011;13057;50.978;11.034;2023-02-04T01:43:40;7.72;;;2.17;;
25057;SDS011;13057;50.978;11.034;2023-02-04T01:46:05;10.88;;;2.40;;
25057;SDS011;13057;50.978;11.034;2023-02-04T01:48:32;12.88;;;2.15;;
25057;SDS011;13057;50.978;11.034;2023-02-04T01:51:01;11.45;;;2.10;;
25057;SDS011;13057;50.978;11.034;2023-02-04T01:53:30;6.68;;;1.80;;
25057;SDS011;13057;50.978;11.034;2023-02-04T01:55:57;10.25;;;1.98;;
25057;SDS011;13057;50.978;11.034;2023-02-04T01:58:22;17.02;;;2.20;;
25057;SDS011;13057;50.978;11.034;2023-02-04T02:00:49;14.23;;;2.00;;
25057;SDS011;13057;50.978;11.034;2023-02-04T02:03:15;11.02;;;2.30;;
25057;SDS011;13057;50.978;11.034;2023-02-04T02:05:42;11.93;;;2.40;;
25057;SDS011;13057;50.978;11.034;2023-02-04T02:08:11;12.50;;;2.05;;
25057;SDS011;13057;50.978;11.034;2023-02-04T02:10:39;13.00;;;2.38;;
25057;SDS011;13057;50.978;11.034;2023-02-04T02:13:06;17.50;;;2.50;;
25057;SDS011;13057;50.978;11.034;2023-02-04T02:15:34;11.40;;;2.20;;
25057;SDS011;13057;50.978;11.034;2023-02-04T02:18:00;11.98;;;2.78;;
25057;SDS011;13057;50.978;11.034;2023-02-04T02:20:26;9.80;;;1.90;;
25057;SDS011;13057;50.978;11.034;2023-02-04T02:22:57;10.85;;;2.10;;
25057;SDS011;13057;50.978;11.034;2023-02-04T02:25:36;13.10;;;2.08;;
25057;SDS011;13057;50.978;11.034;2023-02-04T02:28:03;4.90;;;1.20;;
25057;SDS011;13057;50.978;11.034;2023-02-04T02:30:34;1.77;;;0.60;;
25057;SDS011;13057;50.978;11.034;2023-02-04T02:33:00;5.30;;;0.75;;
25057;SDS011;13057;50.978;11.034;2023-02-04T02:35:26;0.80;;;0.40;;
25057;SDS011;13057;50.978;11.034;2023-02-04T02:37:52;1.90;;;0.52;;
25057;SDS011;13057;50.978;11.034;2023-02-04T02:40:18;2.42;;;0.50;;
25057;SDS011;13057;50.978;11.034;2023-02-04T02:42:44;1.42;;;0.43;;
25057;SDS011;13057;50.978;11.034;2023-02-04T02:45:17;0.70;;;0.40;;
25057;SDS011;13057;50.978;11.034;2023-02-04T02:47:48;0.73;;;0.30;;
25057;SDS011;13057;50.978;11.034;2023-02-04T02:50:16;0.80;;;0.30;;
25057;SDS011;13057;50.978;11.034;2023-02-04T02:52:46;0.70;;;0.47;;
25057;SDS011;13057;50.978;11.034;2023-02-04T02:55:15;2.30;;;0.35;;
25057;SDS011;13057;50.978;11.034;2023-02-04T02:57:44;0.55;;;0.25;;
25057;SDS011;13057;50.978;11.034;2023-02-04T03:00:13;0.40;;;0.30;;
25057;SDS011;13057;50.978;11.034;2023-02-04T03:02:42;0.30;;;0.22;;
25057;SDS011;13057;50.978;11.034;2023-02-04T03:05:09;0.50;;;0.40;;
25057;SDS011;13057;50.978;11.034;2023-02-04T03:07:36;1.85;;;0.63;;
25057;SDS011;13057;50.978;11.034;2023-02-04T03:10:02;0.82;;;0.52;;
25057;SDS011;13057;50.978;11.034;2023-02-04T03:12:29;2.40;;;0.80;;
25057;SDS011;13057;50.978;11.034;2023-02-04T03:14:54;0.95;;;0.30;;
25057;SDS011;13057;50.978;11.034;2023-02-04T03:17:20;2.60;;;0.50;;
25057;SDS011;13057;50.978;11.034;2023-02-04T03:19:47;0.55;;;0.43;;
25057;SDS011;13057;50.978;11.034;2023-02-04T03:22:13;1.23;;;0.52;;
25057;SDS011;13057;50.978;11.034;2023-02-04T03:24:39;0.85;;;0.55;;
25057;SDS011;13057;50.978;11.034;2023-02-04T03:27:06;2.58;;;0.40;;
25057;SDS011;13057;50.978;11.034;2023-02-04T03:29:32;0.90;;;0.50;;
25057;SDS011;13057;50.978;11.034;2023-02-04T03:31:58;0.75;;;0.45;;
25057;SDS011;13057;50.978;11.034;2023-02-04T03:34:24;1.17;;;0.40;;
25057;SDS011;13057;50.978;11.034;2023-02-04T03:36:50;0.90;;;0.50;;
25057;SDS011;13057;50.978;11.034;2023-02-04T03:39:16;1.80;;;0.50;;
25057;SDS011;13057;50.978;11.034;2023-02-04T03:41:42;0.65;;;0.52;;
25057;SDS011;13057;50.978;11.034;2023-02-04T03:44:07;1.00;;;0.60;;
25057;SDS011;13057;50.978;11.034;2023-02-04T03:46:33;2.00;;;0.52;;
25057;SDS011;13057;50.978;11.034;2023-02-04T03:48:59;1.35;;;0.57;;
25057;SDS011;13057;50.978;11.034;2023-02-04T03:51:25;0.70;;;0.63;;
25057;SDS011;13057;50.978;11.034;2023-02-04T03:53:50;0.60;;;0.50;;
25057;SDS011;13057;50.978;11.034;2023-02-04T03:56:17;0.52;;;0.50;;
25057;SDS011;13057;50.978;11.034;2023-02-04T03:58:42;1.13;;;0.60;;
25057;SDS011;13057;50.978;11.034;2023-02-04T04:01:08;0.95;;;0.70;;
25057;SDS011;13057;50.978;11.034;2023-02-04T04:03:34;1.40;;;0.68;;
25057;SDS011;13057;50.978;11.034;2023-02-04T04:06:00;1.20;;;0.80;;
25057;SDS011;13057;50.978;11.034;2023-02-04T04:08:26;1.58;;;0.90;;
25057;SDS011;13057;50.978;11.034;2023-02-04T04:10:51;0.90;;;0.80;;
25057;SDS011;13057;50.978;11.034;2023-02-04T04:13:17;1.15;;;0.90;;
25057;SDS011;13057;50.978;11.034;2023-02-04T04:15:43;2.70;;;0.80;;
25057;SDS011;13057;50.978;11.034;2023-02-04T04:18:09;1.00;;;0.90;;
25057;SDS011;13057;50.978;11.034;2023-02-04T04:20:38;2.08;;;1.20;;
25057;SDS011;13057;50.978;11.034;2023-02-04T04:23:04;1.20;;;0.98;;
25057;SDS011;13057;50.978;11.034;2023-02-04T04:25:29;1.27;;;0.90;;
25057;SDS011;13057;50.978;11.034;2023-02-04T04:27:55;1.73;;;1.08;;
25057;SDS011;13057;50.978;11.034;2023-02-04T04:30:21;1.45;;;0.90;;
25057;SDS011;13057;50.978;11.034;2023-02-04T04:32:47;1.83;;;0.82;;
25057;SDS011;13057;50.978;11.034;2023-02-04T04:35:13;1.50;;;0.95;;
25057;SDS011;13057;50.978;11.034;2023-02-04T04:37:38;1.80;;;1.00;;
25057;SDS011;13057;50.978;11.034;2023-02-04T04:40:04;1.60;;;1.05;;
25057;SDS011;13057;50.978;11.034;2023-02-04T04:42:31;1.35;;;1.02;;
25057;SDS011;13057;50.978;11.034;2023-02-04T04:44:57;1.63;;;1.10;;
25057;SDS011;13057;50.978;11.034;2023-02-04T04:47:22;2.72;;;1.23;;
25057;SDS011;13057;50.978;11.034;2023-02-04T04:49:48;1.65;;;1.20;;
25057;SDS011;13057;50.978;11.034;2023-02-04T04:52:14;2.38;;;0.95;;
25057;SDS011;13057;50.978;11.034;2023-02-04T04:54:40;3.38;;;1.20;;
25057;SDS011;13057;50.978;11.034;2023-02-04T04:57:06;2.47;;;1.27;;
25057;SDS011;13057;50.978;11.034;2023-02-04T04:59:31;1.70;;;1.10;;
25057;SDS011;13057;50.978;11.034;2023-02-04T05:01:57;2.60;;;0.90;;
25057;SDS011;13057;50.978;11.034;2023-02-04T05:04:23;1.70;;;1.20;;
25057;SDS011;13057;50.978;11.034;2023-02-04T05:06:49;2.30;;;1.30;;
25057;SDS011;13057;50.978;11.034;2023-02-04T05:09:15;1.67;;;1.02;;
25057;SDS011;13057;50.978;11.034;2023-02-04T05:11:41;2.05;;;1.20;;
25057;SDS011;13057;50.978;11.034;2023-02-04T05:14:07;1.92;;;1.00;;
25057;SDS011;13057;50.978;11.034;2023-02-04T05:16:33;1.88;;;1.10;;
25057;SDS011;13057;50.978;11.034;2023-02-04T05:18:59;1.85;;;1.00;;
25057;SDS011;13057;50.978;11.034;2023-02-04T05:21:24;2.40;;;1.20;;
25057;SDS011;13057;50.978;11.034;2023-02-04T05:23:50;2.38;;;1.10;;
25057;SDS011;13057;50.978;11.034;2023-02-04T05:26:16;1.50;;;0.80;;
25057;SDS011;13057;50.978;11.034;2023-02-04T05:28:42;1.05;;;0.85;;
25057;SDS011;13057;50.978;11.034;2023-02-04T05:31:08;1.48;;;0.90;;
25057;SDS011;13057;50.978;11.034;2023-02-04T05:33:36;1.83;;;0.90;;
25057;SDS011;13057;50.978;11.034;2023-02-04T05:36:02;1.60;;;1.10;;
25057;SDS011;13057;50.978;11.034;2023-02-04T05:38:28;2.35;;;0.93;;
25057;SDS011;13057;50.978;11.034;2023-02-04T05:40:54;1.55;;;1.00;;
25057;SDS011;13057;50.978;11.034;2023-02-04T05:43:20;3.05;;;1.10;;
25057;SDS011;13057;50.978;11.034;2023-02-04T05:45:45;1.10;;;0.80;;
25057;SDS011;13057;50.978;11.034;2023-02-04T05:48:12;2.15;;;1.00;;
25057;SDS011;13057;50.978;11.034;2023-02-04T05:50:37;4.25;;;3.30;;
25057;SDS011;13057;50.978;11.034;2023-02-04T05:53:03;3.30;;;1.60;;
25057;SDS011;13057;50.978;11.034;2023-02-04T05:55:29;2.90;;;1.83;;
25057;SDS011;13057;50.978;11.034;2023-02-04T05:57:55;2.45;;;1.27;;
25057;SDS011;13057;50.978;11.034;2023-02-04T06:00:20;2.67;;;1.50;;
25057;SDS011;13057;50.978;11.034;2023-02-04T06:02:47;2.53;;;1.38;;
25057;SDS011;13057;50.978;11.034;2023-02-04T06:05:12;2.30;;;1.27;;
25057;SDS011;13057;50.978;11.034;2023-02-04T06:07:41;3.08;;;1.33;;
25057;SDS011;13057;50.978;11.034;2023-02-04T06:10:07;2.30;;;1.20;;
25057;SDS011;13057;50.978;11.034;2023-02-04T06:12:34;3.83;;;1.38;;
25057;SDS011;13057;50.978;11.034;2023-02-04T06:14:59;3.00;;;1.25;;
25057;SDS011;13057;50.978;11.034;2023-02-04T06:17:25;2.05;;;1.30;;
25057;SDS011;13057;50.978;11.034;2023-02-04T06:19:51;2.45;;;1.60;;
25057;SDS011;13057;50.978;11.034;2023-02-04T06:22:20;2.17;;;1.40;;
25057;SDS011;13057;50.978;11.034;2023-02-04T06:24:48;1.95;;;1.20;;
25057;SDS011;13057;50.978;11.034;2023-02-04T06:27:14;2.22;;;1.30;;
25057;SDS011;13057;50.978;11.034;2023-02-04T06:29:47;2.17;;;1.38;;
25057;SDS011;13057;50.978;11.034;2023-02-04T06:32:14;1.90;;;1.40;;
25057;SDS011;13057;50.978;11.034;2023-02-04T06:34:40;1.92;;;1.50;;
25057;SDS011;13057;50.978;11.034;2023-02-04T06:37:06;2.67;;;1.35;;
25057;SDS011;13057;50.978;11.034;2023-02-04T06:39:31;2.00;;;1.40;;
25057;SDS011;13057;50.978;11.034;2023-02-04T06:41:58;3.70;;;1.40;;
25057;SDS011;13057;50.978;11.034;2023-02-04T06:44:23;1.42;;;1.17;;
25057;SDS011;13057;50.978;11.034;2023-02-04T06:46:49;2.58;;;1.27;;
25057;SDS011;13057;50.978;11.034;2023-02-04T06:49:15;2.30;;;1.38;;
25057;SDS011;13057;50.978;11.034;2023-02-04T06:51:41;2.33;;;1.20;;
25057;SDS011;13057;50.978;11.034;2023-02-04T06:54:07;2.05;;;1.30;;
25057;SDS011;13057;50.978;11.034;2023-02-04T06:56:33;1.85;;;1.20;;
25057;SDS011;13057;50.978;11.034;2023-02-04T06:58:58;2.80;;;1.50;;
25057;SDS011;13057;50.978;11.034;2023-02-04T07:01:24;1.92;;;1.38;;
25057;SDS011;13057;50.978;11.034;2023-02-04T07:03:50;2.28;;;1.40;;
25057;SDS011;13057;50.978;11.034;2023-02-04T07:06:16;2.13;;;1.20;;
25057;SDS011;13057;50.978;11.034;2023-02-04T07:08:42;1.92;;;1.20;;
25057;SDS011;13057;50.978;11.034;2023-02-04T07:11:07;4.78;;;1.40;;
25057;SDS011;13057;50.978;11.034;2023-02-04T07:13:33;1.40;;;1.23;;
25057;SDS011;13057;50.978;11.034;2023-02-04T07:15:59;2.33;;;1.23;;
25057;SDS011;13057;50.978;11.034;2023-02-04T07:18:25;3.38;;;1.58;;
25057;SDS011;13057;50.978;11.034;2023-02-04T07:20:51;2.13;;;1.00;;
25057;SDS011;13057;50.978;11.034;2023-02-04T07:23:17;1.58;;;1.20;;
25057;SDS011;13057;50.978;11.034;2023-02-04T07:25:43;2.97;;;1.58;;
25057;SDS011;13057;50.978;11.034;2023-02-04T07:28:09;2.28;;;1.60;;
25057;SDS011;13057;50.978;11.034;2023-02-04T07:30:35;2.10;;;1.30;;
25057;SDS011;13057;50.978;11.034;2023-02-04T07:33:00;3.35;;;1.10;;
25057;SDS011;13057;50.978;11.034;2023-02-04T07:35:29;1.52;;;1.40;;
25057;SDS011;13057;50.978;11.034;2023-02-04T07:37:55;2.92;;;1.60;;
25057;SDS011;13057;50.978;11.034;2023-02-04T07:40:21;2.63;;;1.50;;
25057;SDS011;13057;50.978;11.034;2023-02-04T07:42:47;4.07;;;1.40;;
25057;SDS011;13057;50.978;11.034;2023-02-04T07:45:12;3.78;;;1.52;;
25057;SDS011;13057;50.978;11.034;2023-02-04T07:47:38;3.45;;;1.60;;
25057;SDS011;13057;50.978;11.034;2023-02-04T07:50:04;1.63;;;1.30;;
25057;SDS011;13057;50.978;11.034;2023-02-04T07:52:30;2.70;;;1.38;;
25057;SDS011;13057;50.978;11.034;2023-02-04T07:54:56;2.78;;;1.35;;
25057;SDS011;13057;50.978;11.034;2023-02-04T07:57:22;2.45;;;1.52;;
25057;SDS011;13057;50.978;11.034;2023-02-04T07:59:48;3.55;;;1.50;;
25057;SDS011;13057;50.978;11.034;2023-02-04T08:02:14;5.63;;;3.75;;
25057;SDS011;13057;50.978;11.034;2023-02-04T08:04:40;2.30;;;1.88;;
25057;SDS011;13057;50.978;11.034;2023-02-04T08:07:05;2.85;;;2.00;;
25057;SDS011;13057;50.978;11.034;2023-02-04T08:09:31;2.55;;;1.55;;
25057;SDS011;13057;50.978;11.034;2023-02-04T08:11:57;2.67;;;1.60;;
25057;SDS011;13057;50.978;11.034;2023-02-04T08:14:24;3.25;;;1.80;;
25057;SDS011;13057;50.978;11.034;2023-02-04T08:16:50;3.05;;;1.63;;
25057;SDS011;13057;50.978;11.034;2023-02-04T08:19:16;4.97;;;1.95;;
25057;SDS011;13057;50.978;11.034;2023-02-04T08:21:44;2.20;;;1.50;;
25057;SDS011;13057;50.978;11.034;2023-02-04T08:24:11;2.53;;;1.60;;
25057;SDS011;13057;50.978;11.034;2023-02-04T08:26:38;3.65;;;1.90;;
25057;SDS011;13057;50.978;11.034;2023-02-04T08:29:05;1.90;;;1.40;;
25057;SDS011;13057;50.978;11.034;2023-02-04T08:31:31;1.90;;;1.38;;
25057;SDS011;13057;50.978;11.034;2023-02-04T08:33:57;2.72;;;1.50;;
25057;SDS011;13057;50.978;11.034;2023-02-04T08:36:23;2.20;;;1.35;;
25057;SDS011;13057;50.978;11.034;2023-02-04T08:38:49;1.92;;;1.10;;
25057;SDS011;13057;50.978;11.034;2023-02-04T08:41:15;1.63;;;1.15;;
25057;SDS011;13057;50.978;11.034;2023-02-04T08:43:41;2.50;;;1.35;;
25057;SDS011;13057;50.978;11.034;2023-02-04T08:46:07;2.20;;;1.33;;
25057;SDS011;13057;50.978;11.034;2023-02-04T08:48:33;1.77;;;1.33;;
25057;SDS011;13057;50.978;11.034;2023-02-04T08:50:59;2.75;;;1.27;;
25057;SDS011;13057;50.978;11.034;2023-02-04T08:53:25;3.22;;;1.50;;
25057;SDS011;13057;50.978;11.034;2023-02-04T08:55:51;3.40;;;1.88;;
25057;SDS011;13057;50.978;11.034;2023-02-04T08:58:18;8.23;;;4.13;;
25057;SDS011;13057;50.978;11.034;2023-02-04T09:00:45;2.55;;;1.10;;
25057;SDS011;13057;50.978;11.034;2023-02-04T09:03:11;2.78;;;1.35;;
25057;SDS011;13057;50.978;11.034;2023-02-04T09:05:40;1.60;;;1.20;;
25057;SDS011;13057;50.978;11.034;2023-02-04T09:08:07;1.10;;;0.80;;
25057;SDS011;13057;50.978;11.034;2023-02-04T09:10:33;2.17;;;1.20;;
25057;SDS011;13057;50.978;11.034;2023-02-04T09:12:59;2.42;;;1.40;;
25057;SDS011;13057;50.978;11.034;2023-02-04T09:15:25;2.47;;;1.30;;
25057;SDS011;13057;50.978;11.034;2023-02-04T09:17:51;2.00;;;1.30;;
25057;SDS011;13057;50.978;11.034;2023-02-04T09:20:22;2.50;;;1.60;;
25057;SDS011;13057;50.978;11.034;2023-02-04T09:22:48;3.05;;;1.40;;
25057;SDS011;13057;50.978;11.034;2023-02-04T09:25:14;3.40;;;1.60;;
25057;SDS011;13057;50.978;11.034;2023-02-04T09:27:40;4.32;;;1.50;;
25057;SDS011;13057;50.978;11.034;2023-02-04T09:30:06;2.45;;;1.60;;
25057;SDS011;13057;50.978;11.034;2023-02-04T09:32:32;1.65;;;1.40;;
25057;SDS011;13057;50.978;11.034;2023-02-04T09:34:59;1.48;;;1.30;;
25057;SDS011;13057;50.978;11.034;2023-02-04T09:37:24;2.38;;;1.40;;
25057;SDS011;13057;50.978;11.034;2023-02-04T09:39:51;6.15;;;1.45;;
25057;SDS011;13057;50.978;11.034;2023-02-04T09:42:18;4.43;;;1.70;;
25057;SDS011;13057;50.978;11.034;2023-02-04T09:44:45;3.28;;;1.70;;
25057;SDS011;13057;50.978;11.034;2023-02-04T09:47:11;2.30;;;1.40;;
25057;SDS011;13057;50.978;11.034;2023-02-04T09:49:40;4.00;;;1.50;;
25057;SDS011;13057;50.978;11.034;2023-02-04T09:52:11;2.72;;;1.63;;
25057;SDS011;13057;50.978;11.034;2023-02-04T09:54:40;1.98;;;1.08;;
25057;SDS011;13057;50.978;11.034;2023-02-04T09:57:11;1.50;;;0.80;;
25057;SDS011;13057;50.978;11.034;2023-02-04T09:59:41;3.38;;;2.13;;
25057;SDS011;13057;50.978;11.034;2023-02-04T10:02:15;1.70;;;0.90;;
25057;SDS011;13057;50.978;11.034;2023-02-04T10:04:48;4.35;;;1.50;;
25057;SDS011;13057;50.978;11.034;2023-02-04T10:07:15;3.47;;;1.60;;
25057;SDS011;13057;50.978;11.034;2023-02-04T10:09:46;1.75;;;1.40;;
25057;SDS011;13057;50.978;11.034;2023-02-04T10:12:13;4.32;;;1.48;;
25057;SDS011;13057;50.978;11.034;2023-02-04T10:14:39;2.08;;;1.38;;
25057;SDS011;13057;50.978;11.034;2023-02-04T10:17:06;2.65;;;1.30;;
25057;SDS011;13057;50.978;11.034;2023-02-04T10:19:34;4.00;;;1.23;;
25057;SDS011;13057;50.978;11.034;2023-02-04T10:22:00;1.55;;;1.10;;
25057;SDS011;13057;50.978;11.034;2023-02-04T10:24:39;3.28;;;1.17;;
25057;SDS011;13057;50.978;11.034;2023-02-04T10:27:05;1.73;;;0.90;;
25057;SDS011;13057;50.978;11.034;2023-02-04T10:29:33;3.45;;;1.02;;
25057;SDS011;13057;50.978;11.034;2023-02-04T10:31:59;1.30;;;0.80;;
25057;SDS011;13057;50.978;11.034;2023-02-04T10:34:32;2.25;;;1.52;;
25057;SDS011;13057;50.978;11.034;2023-02-04T10:37:10;2.42;;;1.00;;
25057;SDS011;13057;50.978;11.034;2023-02-04T10:39:42;1.73;;;1.15;;
25057;SDS011;13057;50.978;11.034;2023-02-04T10:42:19;1.25;;;0.70;;
25057;SDS011;13057;50.978;11.034;2023-02-04T10:44:46;2.22;;;1.08;;
25057;SDS011;13057;50.978;11.034;2023-02-04T10:47:14;3.28;;;1.23;;
25057;SDS011;13057;50.978;11.034;2023-02-04T10:49:50;7.55;;;3.58;;
25057;SDS011;13057;50.978;11.034;2023-02-04T10:52:18;1.25;;;0.77;;
25057;SDS011;13057;50.978;11.034;2023-02-04T10:54:45;2.05;;;0.82;;
25057;SDS011;13057;50.978;11.034;2023-02-04T10:57:26;2.10;;;0.80;;
25057;SDS011;13057;50.978;11.034;2023-02-04T10:59:58;2.65;;;0.90;;
25057;SDS011;13057;50.978;11.034;2023-02-04T11:04:56;1.98;;;1.10;;
25057;SDS011;13057;50.978;11.034;2023-02-04T11:07:25;2.63;;;0.90;;
25057;SDS011;13057;50.978;11.034;2023-02-04T11:09:51;4.45;;;1.15;;
25057;SDS011;13057;50.978;11.034;2023-02-04T11:12:19;3.03;;;1.73;;
25057;SDS011;13057;50.978;11.034;2023-02-04T11:14:54;2.00;;;1.00;;
25057;SDS011;13057;50.978;11.034;2023-02-04T11:17:27;2.72;;;1.60;;
25057;SDS011;13057;50.978;11.034;2023-02-04T11:19:55;3.67;;;1.27;;
25057;SDS011;13057;50.978;11.034;2023-02-04T11:22:22;22.02;;;11.85;;
25057;SDS011;13057;50.978;11.034;2023-02-04T11:25:00;4.47;;;2.53;;
25057;SDS011;13057;50.978;11.034;2023-02-04T11:27:36;2.50;;;1.50;;
25057;SDS011;13057;50.978;11.034;2023-02-04T11:30:16;1.67;;;1.10;;
25057;SDS011;13057;50.978;11.034;2023-02-04T11:33:00;7.63;;;3.78;;
25057;SDS011;13057;50.978;11.034;2023-02-04T11:35:32;2.40;;;1.20;;
25057;SDS011;13057;50.978;11.034;2023-02-04T11:37:59;3.47;;;1.50;;
25057;SDS011;13057;50.978;11.034;2023-02-04T11:40:27;5.22;;;1.52;;
25057;SDS011;13057;50.978;11.034;2023-02-04T11:42:59;8.65;;;2.65;;
25057;SDS011;13057;50.978;11.034;2023-02-04T11:45:30;4.65;;;1.80;;
25057;SDS011;13057;50.978;11.034;2023-02-04T11:47:59;2.72;;;0.90;;
25057;SDS011;13057;50.978;11.034;2023-02-04T11:50:31;2.92;;;1.63;;
25057;SDS011;13057;50.978;11.034;2023-02-04T11:52:58;4.18;;;2.58;;
25057;SDS011;13057;50.978;11.034;2023-02-04T11:55:26;2.15;;;1.10;;
25057;SDS011;13057;50.978;11.034;2023-02-04T11:57:54;1.77;;;1.08;;
25057;SDS011;13057;50.978;11.034;2023-02-04T12:00:22;3.10;;;1.38;;
25057;SDS011;13057;50.978;11.034;2023-02-04T12:02:54;3.15;;;1.70;;
25057;SDS011;13057;50.978;11.034;2023-02-04T12:05:28;3.35;;;2.00;;
25057;SDS011;13057;50.978;11.034;2023-02-04T12:08:09;2.03;;;1.08;;
25057;SDS011;13057;50.978;11.034;2023-02-04T12:10:38;3.45;;;1.92;;
25057;SDS011;13057;50.978;11.034;2023-02-04T12:13:11;2.58;;;1.35;;
25057;SDS011;13057;50.978;11.034;2023-02-04T12:15:41;1.15;;;0.95;;
25057;SDS011;13057;50.978;11.034;2023-02-04T12:18:16;1.58;;;1.05;;
25057;SDS011;13057;50.978;11.034;2023-02-04T12:20:42;2.28;;;1.38;;
25057;SDS011;13057;50.978;11.034;2023-02-04T12:23:10;3.15;;;1.60;;
25057;SDS011;13057;50.978;11.034;2023-02-04T12:25:37;2.72;;;1.00;;
25057;SDS011;13057;50.978;11.034;2023-02-04T12:28:09;1.85;;;0.90;;
25057;SDS011;13057;50.978;11.034;2023-02-04T12:30:35;1.50;;;1.20;;
25057;SDS011;13057;50.978;11.034;2023-02-04T12:33:01;2.15;;;1.00;;
25057;SDS011;13057;50.978;11.034;2023-02-04T12:35:27;5.53;;;1.42;;
25057;SDS011;13057;50.978;11.034;2023-02-04T12:37:53;2.60;;;1.15;;
25057;SDS011;13057;50.978;11.034;2023-02-04T12:40:19;1.85;;;1.10;;
25057;SDS011;13057;50.978;11.034;2023-02-04T12:42:46;8.13;;;3.78;;
25057;SDS011;13057;50.978;11.034;2023-02-04T12:45:13;2.78;;;1.17;;
25057;SDS011;13057;50.978;11.034;2023-02-04T12:47:42;1.83;;;1.05;;
25057;SDS011;13057;50.978;11.034;2023-02-04T12:50:15;5.10;;;1.13;;
25057;SDS011;13057;50.978;11.034;2023-02-04T12:52:48;2.78;;;1.30;;
25057;SDS011;13057;50.978;11.034;2023-02-04T12:55:14;2.10;;;0.85;;
25057;SDS011;13057;50.978;11.034;2023-02-04T12:57:41;4.63;;;0.90;;
25057;SDS011;13057;50.978;11.034;2023-02-04T13:00:07;9.32;;;4.22;;
25057;SDS011;13057;50.978;11.034;2023-02-04T13:02:33;2.08;;;1.02;;
25057;SDS011;13057;50.978;11.034;2023-02-04T13:04:59;2.65;;;1.05;;
25057;SDS011;13057;50.978;11.034;2023-02-04T13:07:25;3.03;;;1.30;;
25057;SDS011;13057;50.978;11.034;2023-02-04T13:09:51;1.55;;;0.80;;
25057;SDS011;13057;50.978;11.034;2023-02-04T13:12:17;1.02;;;0.65;;
25057;SDS011;13057;50.978;11.034;2023-02-04T13:14:43;1.20;;;0.70;;
25057;SDS011;13057;50.978;11.034;2023-02-04T13:17:09;1.48;;;0.60;;
25057;SDS011;13057;50.978;11.034;2023-02-04T13:19:35;1.77;;;0.75;;
25057;SDS011;13057;50.978;11.034;2023-02-04T13:22:01;2.33;;;0.93;;
25057;SDS011;13057;50.978;11.034;2023-02-04T13:24:27;5.05;;;0.80;;
25057;SDS011;13057;50.978;11.034;2023-02-04T13:26:53;1.63;;;0.88;;
25057;SDS011;13057;50.978;11.034;2023-02-04T13:29:19;3.67;;;0.70;;
25057;SDS011;13057;50.978;11.034;2023-02-04T13:31:46;1.90;;;1.10;;
25057;SDS011;13057;50.978;11.034;2023-02-04T13:34:12;3.38;;;0.88;;
25057;SDS011;13057;50.978;11.034;2023-02-04T13:36:38;4.70;;;1.50;;
25057;SDS011;13057;50.978;11.034;2023-02-04T13:39:05;1.10;;;0.90;;
25057;SDS011;13057;50.978;11.034;2023-02-04T13:41:30;1.77;;;1.40;;
25057;SDS011;13057;50.978;11.034;2023-02-04T13:43:57;20.05;;;10.45;;
25057;SDS011;13057;50.978;11.034;2023-02-04T13:46:22;4.30;;;2.35;;
25057;SDS011;13057;50.978;11.034;2023-02-04T13:48:49;11.27;;;4.78;;
25057;SDS011;13057;50.978;11.034;2023-02-04T13:51:15;3.38;;;1.92;;
25057;SDS011;13057;50.978;11.034;2023-02-04T13:53:41;6.10;;;4.15;;
25057;SDS011;13057;50.978;11.034;2023-02-04T13:56:07;13.45;;;8.00;;
25057;SDS011;13057;50.978;11.034;2023-02-04T13:58:33;10.32;;;5.45;;
25057;SDS011;13057;50.978;11.034;2023-02-04T14:00:59;13.68;;;4.82;;
25057;SDS011;13057;50.978;11.034;2023-02-04T14:03:26;7.57;;;2.42;;
25057;SDS011;13057;50.978;11.034;2023-02-04T14:05:52;3.67;;;1.85;;
25057;SDS011;13057;50.978;11.034;2023-02-04T14:08:19;7.20;;;1.75;;
25057;SDS011;13057;50.978;11.034;2023-02-04T14:10:45;5.90;;;1.65;;
25057;SDS011;13057;50.978;11.034;2023-02-04T14:13:11;3.92;;;1.50;;
25057;SDS011;13057;50.978;11.034;2023-02-04T14:15:37;2.25;;;1.50;;
25057;SDS011;13057;50.978;11.034;2023-02-04T14:18:06;5.13;;;1.63;;
25057;SDS011;13057;50.978;11.034;2023-02-04T14:20:32;5.82;;;2.72;;
25057;SDS011;13057;50.978;11.034;2023-02-04T14:22:58;2.42;;;1.35;;
25057;SDS011;13057;50.978;11.034;2023-02-04T14:25:24;2.60;;;1.83;;
25057;SDS011;13057;50.978;11.034;2023-02-04T14:27:50;4.78;;;2.30;;
25057;SDS011;13057;50.978;11.034;2023-02-04T14:30:17;3.28;;;2.15;;
25057;SDS011;13057;50.978;11.034;2023-02-04T14:32:46;7.47;;;1.60;;
25057;SDS011;13057;50.978;11.034;2023-02-04T14:35:12;2.63;;;1.20;;